Flight Track Log - Related Links

Times and Time Zones

All times are in EDT time to prevent confusion due to time zone crossing. See the JZA8090 flight status page for this flight to view local times or setup timezone preferences in your user account.

Time Position Orientation Groundspeed Altitude Reporting Facility
EDT Latitude Longitude Course Direction KTS MPH feet Rate Location/Type
12:34PM 47.4456 -122.3078 347° North 117 135 900  Level Seattle Center
12:36PM 47.4175 -122.3725 237° Southwest 150 173 3,000 1,587 Climbing Seattle Center
12:36PM 47.4111 -122.4086 255° West 145 167 4,100 1,548 Climbing Seattle Center
12:37PM 47.4075 -122.4272 254° West 140 161 4,600 1,310 Climbing Seattle Center
12:38PM 47.4222 -122.4781 293° West 175 201 6,000 1,438 Climbing Seattle Center
12:39PM 47.9087 -122.2667 North  Level FlightAware Approximate
12:39PM 47.4736 -122.4789 359° North 184 212 7,500  Level Seattle Center
12:40PM 48.0017 -122.3006 347° North  Level FlightAware Approximate
12:40PM 47.5253 -122.4839 356° North 185 213 8,900  Level Seattle Center
12:41PM 47.5761 -122.4558 20° North 193 222 10,300 1,289 Climbing Seattle Center
12:42PM 47.6264 -122.4292 20° North 193 222 11,500 843 Climbing Seattle Center
12:43PM 47.6794 -122.4022 19° North 199 229 12,000 246 Climbing Seattle Center
12:44PM 47.7472 -122.3672 19° North 257 296 12,000  Level Seattle Center
12:45PM 47.8139 -122.3339 19° North 270 311 12,000  Level Seattle Center
12:46PM 47.8872 -122.2969 19° North 280 322 12,000  Level Seattle Center
12:47PM 47.9642 -122.2886 North 282 325 12,000  Level Seattle Center
12:48PM 48.0397 -122.3142 347° North 284 327 12,000  Level Seattle Center
12:49PM 48.1147 -122.3347 350° North 278 320 12,000  Level Seattle Center
12:50PM 48.2044 -122.3597 349° North 276 318 12,000  Level Seattle Center
12:51PM 48.2803 -122.3831 348° North 279 321 12,000  Level Seattle Center
12:52PM 48.3556 -122.4042 349° North 281 323 12,000 -198 Level Seattle Center
12:53PM 48.4325 -122.4272 349° North 285 328 11,600 -397 Descending Seattle Center
12:54PM 48.5119 -122.4492 350° North 291 335 11,200 -443 Descending Seattle Center
12:55PM 48.5906 -122.4733 349° North 292 336 10,700 -446 Descending Seattle Center
12:56PM 48.6692 -122.4950 350° North 291 335 10,300 -444 Descending Seattle Center
12:56PM 48.7000 -122.5167 335° Northwest 290 334 10,100 -815 Descending Vancouver Center
12:57PM 48.7333 -122.5833 307° West 270 311 9,200 -950 Descending Vancouver Center
12:58PM 48.7833 -122.6833 307° West 270 311 8,200 -600 Descending Vancouver Center
12:59PM 48.8333 -122.7667 312° West 260 299 8,000 -100 Descending Vancouver Center
01:00PM 48.8667 -122.8333 307° West 230 265 8,000  Level Vancouver Center
01:01PM 48.9000 -122.9167 301° West 230 265 8,000 -600 Level Vancouver Center
01:02PM 48.9500 -122.9833 319° Northwest 230 265 6,800 -1,200 Descending Vancouver Center
01:03PM 49.0000 -122.9667 12° North 230 265 5,600 -1,200 Descending Vancouver Center
01:04PM 49.0667 -122.9333 18° North 230 265 4,400 -1,000 Descending Vancouver Center
01:05PM 49.1167 -122.9333 360° North 220 253 3,600 -1,050 Descending Vancouver Center
01:06PM 49.1667 -122.9833 327° Northwest 220 253 2,300 -1,300 Descending Vancouver Center

Login

Don't have an account? Register now (free) for customized features, flight alerts, and more!